ENOL

Ørland Airport

Ørland, Norway
METAR ENOL 170820Z 25005KT 9999 SCT007 BKN020 08/08 Q1039 TEMPO BKN007
Observed Flight Rules
Nov-17 @ 08:20 UTC (36 minutes ago) Marginal Visual Flight Rules
Wind Visibility Clouds
250° at 5 knots 10,000+ meters
  • Scattered at 700' AGL
  • Broken at 2,000' AGL
Temperatures Readings
Current 8°C / 46°F
Dewpoint 8°C / 46°F
Humidity 100%
Altimeter 30.68" Hg
Pressure 1039 hPa
Elevation 7
METAR ENOL 170820Z 25005KT 9999 SCT007 BKN020 08/08 Q1039 TEMPO BKN007
Observed Flight Rules
Nov-17 @ 08:20 UTC
(36 minutes ago)
MVFR
Wind Visibility
250° at 5 knots 10,000+ meters
Clouds
  • Scattered at 700' AGL
  • Broken at 2,000' AGL
Temperature Dewpoint
8°C / 46°F 8°C / 46°F
Humidity Altimeter Pressure
100% 30.68" Hg 1039 hPa